Fmt Urla — 9HA2401 — position and weather

sailwx.info

Track history (hours):
 
Tides and Currents Weather Stations Pressure Air Temp Water Temp Dewpoint Dewpoint Depression Visibility Wind Speed Wind Dir Waves Ship Positions

Fmt Urla

Last reported at 2018-Jun-22 11:50 UTC. Time now 2018-Jun-24 12:28 UTC.
Position N 40°48' E 003°00'.

Length 143 m; draft 5.6 m.

Type: Ship. MMSI: 248533000.

Date/timePositionNaut miles runAvg speedWind from/ knotsBaromVisibWave heightAir tempDewpointWater temp
2018-Jun-22 11:50N 40°48' E 003°00'412.5
2018-Jun-22 11:30N 40°50' E 002°55'1 2.6
2018-Jun-22 10:59N 40°51' E 002°54'0 0.2
2018-Jun-22 10:30N 40°51' E 002°54'0 0.2
2018-Jun-22 10:00N 40°51' E 002°54'0 0.3
2018-Jun-22 09:30N 40°51' E 002°54'0 0.3
2018-Jun-22 09:00N 40°51' E 002°53'0 0.4
2018-Jun-22 08:30N 40°51' E 002°53'0 0.3
2018-Jun-22 08:00N 40°52' E 002°53'0 0.4
2018-Jun-22 07:31N 40°52' E 002°53'0 0.3
2018-Jun-22 07:00N 40°52' E 002°53'0 0.3
2018-Jun-22 06:30N 40°52' E 002°52'0 0.4
2018-Jun-22 06:00N 40°51' E 002°52'0 0.3
2018-Jun-22 05:30N 40°51' E 002°52'0 0.3
2018-Jun-22 05:00N 40°51' E 002°52'0 0.2
2018-Jun-22 04:31N 40°51' E 002°52'0 0.1
2018-Jun-22 04:00N 40°51' E 002°52'0 0.1
2018-Jun-22 03:31N 40°51' E 002°52'0 0.1
2018-Jun-22 03:01N 40°51' E 002°52'0 0.0
2018-Jun-22 02:30N 40°51' E 002°52'0 0.0
2018-Jun-22 02:00N 40°51' E 002°52'0 0.5
2018-Jun-22 01:30N 40°51' E 002°52'1 2.1
2018-Jun-22 01:00N 40°52' E 002°53'4 7.1
2018-Jun-22 00:30N 40°54' E 002°57'4 7.2
2018-Jun-22 00:00N 40°56' E 003°01'4 7.3
2018-Jun-21 23:30N 40°59' E 003°04'4 7.1
2018-Jun-21 23:00N 41°02' E 003°04'4 7.3
2018-Jun-21 22:30N 41°06' E 003°05'712.9
2018-Jun-21 22:00N 41°12' E 003°09'4 8.1
2018-Jun-21 21:30N 41°15' E 003°11'4 8.3
2018-Jun-21 21:00N 41°19' E 003°14'4 7.8
2018-Jun-21 20:31N 41°22' E 003°17'4 7.9
2018-Jun-21 20:00N 41°26' E 003°19'4 7.9
2018-Jun-21 19:30N 41°29' E 003°21'4 7.5
2018-Jun-21 19:00N 41°33' E 003°24'4 7.6
2018-Jun-21 18:30N 41°36' E 003°26'4 7.6
2018-Jun-21 18:00N 41°40' E 003°28'5 8.3
2018-Jun-21 17:28N 41°42' E 003°33'11 7.8
2018-Jun-21 16:01N 41°50' E 003°45'0 8.1
2018-Jun-21 15:59N 41°50' E 003°45'8 8.2
2018-Jun-21 15:04N 41°55' E 003°52'1 8.2
2018-Jun-21 14:54N 41°56' E 003°53'3 8.2
2018-Jun-21 14:30N 41°59' E 003°55'4 8.8
2018-Jun-21 14:00N 42°03' E 003°58'30 9.4
2018-Jun-21 10:48N 42°28' E 004°21'3 7.5
2018-Jun-21 10:28N 42°30' E 004°23'4 7.6
2018-Jun-21 09:59N 42°33' E 004°26'11 8.0
2018-Jun-21 08:35N 42°42' E 004°35'1 8.1
2018-Jun-21 08:24N 42°44' E 004°36'4 8.0
2018-Jun-21 07:56N 42°47' E 004°38'4 8.0
2018-Jun-21 07:30N 42°50' E 004°41'4 8.4
2018-Jun-21 07:00N 42°53' E 004°44'4 8.4
2018-Jun-21 06:30N 42°56' E 004°48'4 8.3
2018-Jun-21 06:00N 42°60' E 004°51'4 8.4
2018-Jun-21 05:30N 43°03' E 004°54'4 8.2
2018-Jun-21 05:00N 43°07' E 004°57'4 8.2
2018-Jun-21 04:30N 43°10' E 005°00'4 7.8
2018-Jun-21 04:00N 43°14' E 005°00'4 8.5
2018-Jun-21 03:30N 43°18' E 004°59'4 8.0
2018-Jun-21 03:00N 43°22' E 004°58'4 7.3
2018-Jun-21 02:31N 43°24' E 004°54'1 1.6
2018-Jun-21 01:53N 43°25' E 004°53'0 0.0
2018-Jun-21 01:29N 43°25' E 004°53'0 0.0
2018-Jun-21 00:59N 43°25' E 004°53'0 0.0
2018-Jun-21 00:29N 43°25' E 004°53'0 0.0
2018-Jun-20 23:59N 43°25' E 004°53'0 0.0
2018-Jun-20 23:29N 43°25' E 004°53'0 0.0
2018-Jun-20 22:56N 43°25' E 004°53'0 0.0
2018-Jun-20 22:29N 43°25' E 004°53'0 0.0
2018-Jun-20 21:59N 43°25' E 004°53'0 0.0
2018-Jun-20 21:27N 43°25' E 004°53'0 0.0
2018-Jun-20 20:45N 43°25' E 004°53'0 0.0
2018-Jun-20 20:27N 43°25' E 004°53'0 0.0
2018-Jun-20 20:00N 43°25' E 004°53'0 0.0
2018-Jun-20 19:30N 43°25' E 004°53'0 0.0
2018-Jun-20 19:00N 43°25' E 004°53'0 0.0
2018-Jun-20 18:27N 43°25' E 004°53'0 0.0
2018-Jun-20 17:57N 43°25' E 004°53'0 0.0
2018-Jun-20 17:27N 43°25' E 004°53'0 0.0
2018-Jun-20 16:57N 43°25' E 004°53'0 0.0
2018-Jun-20 16:24N 43°25' E 004°53'0 0.0
2018-Jun-20 15:57N 43°25' E 004°53'0 0.0
2018-Jun-20 15:27N 43°25' E 004°53'0 0.0
2018-Jun-20 14:57N 43°25' E 004°53'0 0.0
2018-Jun-20 14:30N 43°25' E 004°53'0 0.0
2018-Jun-20 13:57N 43°25' E 004°53'0 0.0
2018-Jun-20 13:24N 43°25' E 004°53'0 0.0
2018-Jun-20 13:00N 43°25' E 004°53'0 0.0
2018-Jun-20 12:27N 43°25' E 004°53'0 0.0
2018-Jun-20 12:00N 43°25' E 004°53'0 0.0
2018-Jun-20 11:27N 43°25' E 004°53'0 0.0
2018-Jun-20 10:57N 43°25' E 004°53'0 0.0
2018-Jun-20 03:02N 43°25' E 004°53'0 0.0
2018-Jun-20 02:14N 43°25' E 004°53'0 0.0
2018-Jun-20 01:53N 43°25' E 004°53'0 0.0
2018-Jun-20 00:37N 43°25' E 004°53'0 0.0
2018-Jun-19 23:22N 43°25' E 004°53'0 0.0
2018-Jun-19 22:43N 43°25' E 004°53'0 0.0
2018-Jun-19 22:20N 43°25' E 004°53'0 0.0
2018-Jun-19 21:58N 43°25' E 004°53'0 0.4
2018-Jun-19 21:30N 43°25' E 004°53'3 5.2
2018-Jun-19 21:00N 43°24' E 004°56'0 0.1
2018-Jun-19 20:29N 43°24' E 004°56'0 0.1
2018-Jun-19 19:59N 43°24' E 004°56'0 0.1
2018-Jun-19 19:29N 43°24' E 004°56'0 0.1
2018-Jun-19 18:59N 43°24' E 004°57'0 0.0
2018-Jun-19 18:29N 43°24' E 004°57'0 0.0
2018-Jun-19 17:59N 43°24' E 004°57'0 0.0
2018-Jun-19 17:29N 43°24' E 004°57'0 0.0
2018-Jun-19 16:59N 43°24' E 004°57'0 0.0
2018-Jun-19 16:29N 43°24' E 004°57'0 0.0
2018-Jun-19 15:56N 43°24' E 004°57'0 0.0
2018-Jun-19 15:29N 43°24' E 004°57'0 0.0
2018-Jun-19 14:53N 43°24' E 004°57'0 0.0
2018-Jun-19 14:29N 43°24' E 004°57'0 0.0
2018-Jun-19 13:59N 43°24' E 004°57'0 0.0
2018-Jun-19 13:29N 43°24' E 004°57'0 0.0
2018-Jun-19 12:59N 43°24' E 004°57'0 0.0
2018-Jun-19 12:29N 43°24' E 004°57'0 0.1
2018-Jun-19 11:59N 43°24' E 004°57'0 0.1
2018-Jun-19 11:14N 43°24' E 004°57'0 0.1
2018-Jun-19 10:59N 43°24' E 004°57'0 0.0
2018-Jun-19 10:29N 43°24' E 004°57'0 0.0
2018-Jun-19 09:59N 43°24' E 004°56'0 0.0
2018-Jun-19 09:29N 43°24' E 004°56'0 0.0
2018-Jun-19 08:59N 43°24' E 004°56'0 0.0
2018-Jun-19 08:29N 43°24' E 004°56'0 0.0
2018-Jun-19 07:59N 43°24' E 004°56'0 0.0
2018-Jun-19 07:29N 43°24' E 004°56'0 0.0
2018-Jun-19 06:59N 43°24' E 004°56'0 0.0
2018-Jun-19 06:23N 43°24' E 004°56'0 0.0
2018-Jun-19 05:59N 43°24' E 004°56'0 0.0
2018-Jun-19 05:29N 43°24' E 004°56'0 0.0
2018-Jun-19 04:59N 43°24' E 004°56'0 0.0
2018-Jun-19 04:29N 43°24' E 004°56'0 0.0
2018-Jun-19 03:53N 43°24' E 004°56'0 0.0
2018-Jun-19 03:29N 43°24' E 004°56'0 0.0
2018-Jun-19 02:59N 43°24' E 004°56'0 0.0
2018-Jun-19 02:29N 43°24' E 004°56'0 0.0
2018-Jun-19 01:59N 43°24' E 004°56'0 0.0
2018-Jun-19 01:26N 43°24' E 004°56'0 0.0
2018-Jun-19 00:59N 43°24' E 004°57'0 0.0
2018-Jun-19 00:26N 43°24' E 004°57'0 0.0
2018-Jun-18 23:59N 43°24' E 004°57'0 0.0
2018-Jun-18 23:29N 43°24' E 004°57'0 0.0
2018-Jun-18 22:47N 43°24' E 004°57'0 0.0
2018-Jun-18 22:29N 43°24' E 004°57'0 0.0
2018-Jun-18 21:53N 43°24' E 004°57'0 0.0
2018-Jun-18 21:29N 43°24' E 004°57'0 0.0
2018-Jun-18 20:59N 43°24' E 004°57'0 0.0
2018-Jun-18 20:17N 43°24' E 004°57'0 0.0
2018-Jun-18 19:59N 43°24' E 004°57'0 0.0
2018-Jun-18 19:29N 43°24' E 004°57'0 0.0
2018-Jun-18 18:59N 43°24' E 004°57'0 0.0
2018-Jun-18 18:23N 43°24' E 004°57'0 0.0
2018-Jun-18 17:59N 43°24' E 004°57'0 0.0
2018-Jun-18 17:29N 43°24' E 004°57'0 0.0
2018-Jun-18 16:53N 43°24' E 004°57'0 0.0
2018-Jun-18 16:26N 43°24' E 004°57'0 0.0
2018-Jun-18 15:59N 43°24' E 004°57'0 0.0
2018-Jun-18 15:17N 43°24' E 004°57'0 0.0
2018-Jun-18 14:59N 43°24' E 004°57'0 0.0
2018-Jun-18 14:23N 43°24' E 004°57'0 0.0
2018-Jun-18 13:59N 43°24' E 004°57'0 0.0
2018-Jun-18 13:29N 43°24' E 004°57'0 0.0
2018-Jun-18 12:53N 43°24' E 004°57'0 0.0
2018-Jun-18 12:29N 43°24' E 004°57'0 0.0
2018-Jun-18 11:59N 43°24' E 004°57'0 0.0
2018-Jun-18 11:23N 43°24' E 004°57'0 0.0
2018-Jun-18 10:59N 43°24' E 004°57'0 0.0
2018-Jun-18 10:29N 43°24' E 004°56'0 0.0
2018-Jun-18 09:59N 43°24' E 004°57'0 0.0
2018-Jun-18 09:29N 43°24' E 004°57'0 0.0
2018-Jun-18 08:56N 43°24' E 004°57'0 0.0
2018-Jun-18 08:26N 43°24' E 004°57'0 0.0
2018-Jun-18 07:59N 43°24' E 004°57'0 0.0
2018-Jun-18 07:29N 43°24' E 004°57'0 0.0
2018-Jun-18 06:59N 43°24' E 004°57'0 0.0
2018-Jun-18 06:20N 43°24' E 004°57'0 0.0
2018-Jun-18 05:59N 43°24' E 004°57'0 0.0
2018-Jun-18 05:29N 43°24' E 004°57'0 0.0
2018-Jun-18 04:59N 43°24' E 004°57'0 0.0
2018-Jun-18 04:29N 43°24' E 004°57'0 0.0
2018-Jun-18 03:59N 43°24' E 004°57'0 0.0
2018-Jun-18 03:29N 43°24' E 004°57'0 0.0
2018-Jun-18 02:59N 43°24' E 004°57'0 0.0
2018-Jun-18 02:29N 43°24' E 004°57'0 0.0
2018-Jun-18 01:56N 43°24' E 004°57'0 0.0
2018-Jun-18 01:29N 43°24' E 004°57'0 0.0
2018-Jun-18 00:56N 43°24' E 004°57'0 0.0
2018-Jun-18 00:23N 43°24' E 004°57'0 0.0
2018-Jun-17 23:59N 43°24' E 004°57'0 0.0
2018-Jun-17 23:29N 43°24' E 004°57'0 0.0
2018-Jun-17 22:59N 43°24' E 004°57'0 0.0
2018-Jun-17 22:29N 43°24' E 004°57'0 0.0
2018-Jun-17 21:59N 43°24' E 004°57'0 0.0
2018-Jun-17 21:26N 43°24' E 004°57'0 0.0
2018-Jun-17 20:53N 43°24' E 004°57'0 0.0
2018-Jun-17 20:29N 43°24' E 004°57'0 0.0
2018-Jun-17 19:59N 43°24' E 004°57'0 0.0
2018-Jun-17 19:17N 43°24' E 004°57'0 0.1
2018-Jun-17 18:59N 43°24' E 004°57'0 0.0
2018-Jun-17 18:29N 43°24' E 004°57'0 0.0
2018-Jun-17 17:56N 43°24' E 004°57'0 0.0
2018-Jun-17 17:29N 43°24' E 004°57'0 0.0
2018-Jun-17 16:53N 43°24' E 004°57'0 0.0
2018-Jun-17 16:29N 43°24' E 004°57'0 0.0
2018-Jun-17 15:59N 43°24' E 004°57'0 0.0
2018-Jun-17 15:29N 43°24' E 004°57'0 0.1
2018-Jun-17 14:59N 43°24' E 004°57'0 0.0
2018-Jun-17 14:29N 43°24' E 004°57'0 0.1
2018-Jun-17 13:59N 43°24' E 004°57'0 0.0
2018-Jun-17 13:20N 43°24' E 004°57'0 0.0
2018-Jun-17 12:59N 43°24' E 004°57'0 0.0
2018-Jun-17 12:23N 43°24' E 004°57'0 0.0
2018-Jun-17 11:56N 43°24' E 004°57'0 0.0
2018-Jun-17 11:29N 43°24' E 004°57'0 0.0
2018-Jun-17 10:59N 43°24' E 004°57'0 0.0
2018-Jun-17 10:23N 43°24' E 004°57'0 0.0
2018-Jun-17 09:59N 43°24' E 004°57'0 0.0
2018-Jun-17 09:29N 43°24' E 004°57'0 0.0
2018-Jun-17 08:59N 43°24' E 004°57'0 0.0
2018-Jun-17 08:29N 43°24' E 004°57'0 0.0
2018-Jun-17 07:59N 43°24' E 004°57'0 0.0
2018-Jun-17 07:26N 43°24' E 004°57'0 0.1
2018-Jun-17 06:56N 43°24' E 004°57'0 0.0
2018-Jun-17 06:29N 43°24' E 004°57'0 0.0
2018-Jun-17 05:59N 43°24' E 004°57'0 0.0
2018-Jun-17 05:23N 43°24' E 004°57'0 0.0
2018-Jun-17 04:59N 43°24' E 004°57'0 0.0
2018-Jun-17 04:20N 43°24' E 004°57'0 0.0
2018-Jun-17 03:53N 43°24' E 004°57'0 0.0
2018-Jun-17 03:29N 43°24' E 004°57'0 0.0
2018-Jun-17 02:59N 43°24' E 004°57'0 0.0
2018-Jun-17 02:23N 43°24' E 004°57'0 0.0
2018-Jun-17 01:59N 43°24' E 004°57'0 0.0
2018-Jun-17 01:29N 43°24' E 004°57'0 0.0
2018-Jun-17 00:56N 43°24' E 004°57'0 0.0
2018-Jun-17 00:29N 43°24' E 004°57'0 0.0
2018-Jun-16 23:53N 43°24' E 004°57'0 0.0
2018-Jun-16 23:29N 43°24' E 004°57'0 0.0
2018-Jun-16 23:00N 43°24' E 004°57'1 2.9
2018-Jun-16 22:30N 43°23' E 004°58'4 9.1
2018-Jun-16 22:00N 43°18' E 004°60'711.8
2018-Jun-16 21:27N 43°12' E 005°02'27912.1
2018-Jun-15 22:28N 39°30' E 001°17'1112.7
2018-Jun-15 21:35N 39°21' E 001°08'112.9
2018-Jun-15 21:29N 39°20' E 001°07'1012.9
2018-Jun-15 20:41N 39°12' E 000°59'412.9
2018-Jun-15 20:22N 39°09' E 000°56'513.1
2018-Jun-15 20:00N 39°05' E 000°52'612.9
2018-Jun-15 19:30N 39°00' E 000°46'612.8
2018-Jun-15 19:00N 38°55' E 000°41'712.9
2018-Jun-15 18:29N 38°50' E 000°36'713.1
2018-Jun-15 17:57N 38°45' E 000°30'613.0
2018-Jun-15 17:30N 38°40' E 000°26'712.8
2018-Jun-15 16:59N 38°34' E 000°21'612.8
2018-Jun-15 16:30N 38°29' E 000°17'612.7
2018-Jun-15 15:59N 38°24' E 000°12'613.2
2018-Jun-15 15:30N 38°18' E 000°08'713.2
2018-Jun-15 15:00N 38°13' E 000°03'713.2
2018-Jun-15 14:29N 38°07' W 000°02'713.0
2018-Jun-15 13:57N 38°02' W 000°07'1612.9
2018-Jun-15 12:42N 37°48' W 000°18'413.4
2018-Jun-15 12:27N 37°45' W 000°21'713.1
2018-Jun-15 11:56N 37°39' W 000°25'512.6
2018-Jun-15 11:30N 37°35' W 000°29'812.8
2018-Jun-15 10:54N 37°29' W 000°36'512.7
2018-Jun-15 10:30N 37°26' W 000°40'712.3
2018-Jun-15 09:57N 37°22' W 000°47'811.9
2018-Jun-15 09:19N 37°16' W 000°54'22112.5
2018-Jun-14 15:36N 36°01' W 005°13'115.9
2018-Jun-14 15:30N 36°00' W 005°15'815.5
2018-Jun-14 15:00N 35°58' W 005°24'  
Track history (hours):
 
Tides and Currents Weather Stations Pressure Air Temp Water Temp Dewpoint Dewpoint Depression Visibility Wind Speed Wind Dir Waves Ship Positions

Fmt Urla

Last reported at 2018-Jun-22 11:50 UTC. Time now 2018-Jun-24 12:28 UTC.
Position N 40°48' E 003°00'.

Length 143 m; draft 5.6 m.

Type: Ship. MMSI: 248533000.

Date/timePositionNaut miles runAvg speedWind from/ knotsBaromVisibWave heightAir tempDewpointWater temp
2018-Jun-22 11:50N 40°48' E 003°00'412.5
2018-Jun-22 11:30N 40°50' E 002°55'1 2.6
2018-Jun-22 10:59N 40°51' E 002°54'0 0.2
2018-Jun-22 10:30N 40°51' E 002°54'0 0.2
2018-Jun-22 10:00N 40°51' E 002°54'0 0.3
2018-Jun-22 09:30N 40°51' E 002°54'0 0.3
2018-Jun-22 09:00N 40°51' E 002°53'0 0.4
2018-Jun-22 08:30N 40°51' E 002°53'0 0.3
2018-Jun-22 08:00N 40°52' E 002°53'0 0.4
2018-Jun-22 07:31N 40°52' E 002°53'0 0.3
2018-Jun-22 07:00N 40°52' E 002°53'0 0.3
2018-Jun-22 06:30N 40°52' E 002°52'0 0.4
2018-Jun-22 06:00N 40°51' E 002°52'0 0.3
2018-Jun-22 05:30N 40°51' E 002°52'0 0.3
2018-Jun-22 05:00N 40°51' E 002°52'0 0.2
2018-Jun-22 04:31N 40°51' E 002°52'0 0.1
2018-Jun-22 04:00N 40°51' E 002°52'0 0.1
2018-Jun-22 03:31N 40°51' E 002°52'0 0.1
2018-Jun-22 03:01N 40°51' E 002°52'0 0.0
2018-Jun-22 02:30N 40°51' E 002°52'0 0.0
2018-Jun-22 02:00N 40°51' E 002°52'0 0.5
2018-Jun-22 01:30N 40°51' E 002°52'1 2.1
2018-Jun-22 01:00N 40°52' E 002°53'4 7.1
2018-Jun-22 00:30N 40°54' E 002°57'4 7.2
2018-Jun-22 00:00N 40°56' E 003°01'4 7.3
2018-Jun-21 23:30N 40°59' E 003°04'4 7.1
2018-Jun-21 23:00N 41°02' E 003°04'4 7.3
2018-Jun-21 22:30N 41°06' E 003°05'712.9
2018-Jun-21 22:00N 41°12' E 003°09'4 8.1
2018-Jun-21 21:30N 41°15' E 003°11'4 8.3
2018-Jun-21 21:00N 41°19' E 003°14'4 7.8
2018-Jun-21 20:31N 41°22' E 003°17'4 7.9
2018-Jun-21 20:00N 41°26' E 003°19'4 7.9
2018-Jun-21 19:30N 41°29' E 003°21'4 7.5
2018-Jun-21 19:00N 41°33' E 003°24'4 7.6
2018-Jun-21 18:30N 41°36' E 003°26'4 7.6
2018-Jun-21 18:00N 41°40' E 003°28'5 8.3
2018-Jun-21 17:28N 41°42' E 003°33'11 7.8
2018-Jun-21 16:01N 41°50' E 003°45'0 8.1
2018-Jun-21 15:59N 41°50' E 003°45'8 8.2
2018-Jun-21 15:04N 41°55' E 003°52'1 8.2
2018-Jun-21 14:54N 41°56' E 003°53'3 8.2
2018-Jun-21 14:30N 41°59' E 003°55'4 8.8
2018-Jun-21 14:00N 42°03' E 003°58'30 9.4
2018-Jun-21 10:48N 42°28' E 004°21'3 7.5
2018-Jun-21 10:28N 42°30' E 004°23'4 7.6
2018-Jun-21 09:59N 42°33' E 004°26'11 8.0
2018-Jun-21 08:35N 42°42' E 004°35'1 8.1
2018-Jun-21 08:24N 42°44' E 004°36'4 8.0
2018-Jun-21 07:56N 42°47' E 004°38'4 8.0
2018-Jun-21 07:30N 42°50' E 004°41'4 8.4
2018-Jun-21 07:00N 42°53' E 004°44'4 8.4
2018-Jun-21 06:30N 42°56' E 004°48'4 8.3
2018-Jun-21 06:00N 42°60' E 004°51'4 8.4
2018-Jun-21 05:30N 43°03' E 004°54'4 8.2
2018-Jun-21 05:00N 43°07' E 004°57'4 8.2
2018-Jun-21 04:30N 43°10' E 005°00'4 7.8
2018-Jun-21 04:00N 43°14' E 005°00'4 8.5
2018-Jun-21 03:30N 43°18' E 004°59'4 8.0
2018-Jun-21 03:00N 43°22' E 004°58'4 7.3
2018-Jun-21 02:31N 43°24' E 004°54'1 1.6
2018-Jun-21 01:53N 43°25' E 004°53'0 0.0
2018-Jun-21 01:29N 43°25' E 004°53'0 0.0
2018-Jun-21 00:59N 43°25' E 004°53'0 0.0
2018-Jun-21 00:29N 43°25' E 004°53'0 0.0
2018-Jun-20 23:59N 43°25' E 004°53'0 0.0
2018-Jun-20 23:29N 43°25' E 004°53'0 0.0
2018-Jun-20 22:56N 43°25' E 004°53'0 0.0
2018-Jun-20 22:29N 43°25' E 004°53'0 0.0
2018-Jun-20 21:59N 43°25' E 004°53'0 0.0
2018-Jun-20 21:27N 43°25' E 004°53'0 0.0
2018-Jun-20 20:45N 43°25' E 004°53'0 0.0
2018-Jun-20 20:27N 43°25' E 004°53'0 0.0
2018-Jun-20 20:00N 43°25' E 004°53'0 0.0
2018-Jun-20 19:30N 43°25' E 004°53'0 0.0
2018-Jun-20 19:00N 43°25' E 004°53'0 0.0
2018-Jun-20 18:27N 43°25' E 004°53'0 0.0
2018-Jun-20 17:57N 43°25' E 004°53'0 0.0
2018-Jun-20 17:27N 43°25' E 004°53'0 0.0
2018-Jun-20 16:57N 43°25' E 004°53'0 0.0
2018-Jun-20 16:24N 43°25' E 004°53'0 0.0
2018-Jun-20 15:57N 43°25' E 004°53'0 0.0
2018-Jun-20 15:27N 43°25' E 004°53'0 0.0
2018-Jun-20 14:57N 43°25' E 004°53'0 0.0
2018-Jun-20 14:30N 43°25' E 004°53'0 0.0
2018-Jun-20 13:57N 43°25' E 004°53'0 0.0
2018-Jun-20 13:24N 43°25' E 004°53'0 0.0
2018-Jun-20 13:00N 43°25' E 004°53'0 0.0
2018-Jun-20 12:27N 43°25' E 004°53'0 0.0
2018-Jun-20 12:00N 43°25' E 004°53'0 0.0
2018-Jun-20 11:27N 43°25' E 004°53'0 0.0
2018-Jun-20 10:57N 43°25' E 004°53'0 0.0
2018-Jun-20 03:02N 43°25' E 004°53'0 0.0
2018-Jun-20 02:14N 43°25' E 004°53'0 0.0
2018-Jun-20 01:53N 43°25' E 004°53'0 0.0
2018-Jun-20 00:37N 43°25' E 004°53'0 0.0
2018-Jun-19 23:22N 43°25' E 004°53'0 0.0
2018-Jun-19 22:43N 43°25' E 004°53'0 0.0
2018-Jun-19 22:20N 43°25' E 004°53'0 0.0
2018-Jun-19 21:58N 43°25' E 004°53'0 0.4
2018-Jun-19 21:30N 43°25' E 004°53'3 5.2
2018-Jun-19 21:00N 43°24' E 004°56'0 0.1
2018-Jun-19 20:29N 43°24' E 004°56'0 0.1
2018-Jun-19 19:59N 43°24' E 004°56'0 0.1
2018-Jun-19 19:29N 43°24' E 004°56'0 0.1
2018-Jun-19 18:59N 43°24' E 004°57'0 0.0
2018-Jun-19 18:29N 43°24' E 004°57'0 0.0
2018-Jun-19 17:59N 43°24' E 004°57'0 0.0
2018-Jun-19 17:29N 43°24' E 004°57'0 0.0
2018-Jun-19 16:59N 43°24' E 004°57'0 0.0
2018-Jun-19 16:29N 43°24' E 004°57'0 0.0
2018-Jun-19 15:56N 43°24' E 004°57'0 0.0
2018-Jun-19 15:29N 43°24' E 004°57'0 0.0
2018-Jun-19 14:53N 43°24' E 004°57'0 0.0
2018-Jun-19 14:29N 43°24' E 004°57'0 0.0
2018-Jun-19 13:59N 43°24' E 004°57'0 0.0
2018-Jun-19 13:29N 43°24' E 004°57'0 0.0
2018-Jun-19 12:59N 43°24' E 004°57'0 0.0
2018-Jun-19 12:29N 43°24' E 004°57'0 0.1
2018-Jun-19 11:59N 43°24' E 004°57'0 0.1
2018-Jun-19 11:14N 43°24' E 004°57'0 0.1
2018-Jun-19 10:59N 43°24' E 004°57'0 0.0
2018-Jun-19 10:29N 43°24' E 004°57'0 0.0
2018-Jun-19 09:59N 43°24' E 004°56'0 0.0
2018-Jun-19 09:29N 43°24' E 004°56'0 0.0
2018-Jun-19 08:59N 43°24' E 004°56'0 0.0
2018-Jun-19 08:29N 43°24' E 004°56'0 0.0
2018-Jun-19 07:59N 43°24' E 004°56'0 0.0
2018-Jun-19 07:29N 43°24' E 004°56'0 0.0
2018-Jun-19 06:59N 43°24' E 004°56'0 0.0
2018-Jun-19 06:23N 43°24' E 004°56'0 0.0
2018-Jun-19 05:59N 43°24' E 004°56'0 0.0
2018-Jun-19 05:29N 43°24' E 004°56'0 0.0
2018-Jun-19 04:59N 43°24' E 004°56'0 0.0
2018-Jun-19 04:29N 43°24' E 004°56'0 0.0
2018-Jun-19 03:53N 43°24' E 004°56'0 0.0
2018-Jun-19 03:29N 43°24' E 004°56'0 0.0
2018-Jun-19 02:59N 43°24' E 004°56'0 0.0
2018-Jun-19 02:29N 43°24' E 004°56'0 0.0
2018-Jun-19 01:59N 43°24' E 004°56'0 0.0
2018-Jun-19 01:26N 43°24' E 004°56'0 0.0
2018-Jun-19 00:59N 43°24' E 004°57'0 0.0
2018-Jun-19 00:26N 43°24' E 004°57'0 0.0
2018-Jun-18 23:59N 43°24' E 004°57'0 0.0
2018-Jun-18 23:29N 43°24' E 004°57'0 0.0
2018-Jun-18 22:47N 43°24' E 004°57'0 0.0
2018-Jun-18 22:29N 43°24' E 004°57'0 0.0
2018-Jun-18 21:53N 43°24' E 004°57'0 0.0
2018-Jun-18 21:29N 43°24' E 004°57'0 0.0
2018-Jun-18 20:59N 43°24' E 004°57'0 0.0
2018-Jun-18 20:17N 43°24' E 004°57'0 0.0
2018-Jun-18 19:59N 43°24' E 004°57'0 0.0
2018-Jun-18 19:29N 43°24' E 004°57'0 0.0
2018-Jun-18 18:59N 43°24' E 004°57'0 0.0
2018-Jun-18 18:23N 43°24' E 004°57'0 0.0
2018-Jun-18 17:59N 43°24' E 004°57'0 0.0
2018-Jun-18 17:29N 43°24' E 004°57'0 0.0
2018-Jun-18 16:53N 43°24' E 004°57'0 0.0
2018-Jun-18 16:26N 43°24' E 004°57'0 0.0
2018-Jun-18 15:59N 43°24' E 004°57'0 0.0
2018-Jun-18 15:17N 43°24' E 004°57'0 0.0
2018-Jun-18 14:59N 43°24' E 004°57'0 0.0
2018-Jun-18 14:23N 43°24' E 004°57'0 0.0
2018-Jun-18 13:59N 43°24' E 004°57'0 0.0
2018-Jun-18 13:29N 43°24' E 004°57'0 0.0
2018-Jun-18 12:53N 43°24' E 004°57'0 0.0
2018-Jun-18 12:29N 43°24' E 004°57'0 0.0
2018-Jun-18 11:59N 43°24' E 004°57'0 0.0
2018-Jun-18 11:23N 43°24' E 004°57'0 0.0
2018-Jun-18 10:59N 43°24' E 004°57'0 0.0
2018-Jun-18 10:29N 43°24' E 004°56'0 0.0
2018-Jun-18 09:59N 43°24' E 004°57'0 0.0
2018-Jun-18 09:29N 43°24' E 004°57'0 0.0
2018-Jun-18 08:56N 43°24' E 004°57'0 0.0
2018-Jun-18 08:26N 43°24' E 004°57'0 0.0
2018-Jun-18 07:59N 43°24' E 004°57'0 0.0
2018-Jun-18 07:29N 43°24' E 004°57'0 0.0
2018-Jun-18 06:59N 43°24' E 004°57'0 0.0
2018-Jun-18 06:20N 43°24' E 004°57'0 0.0
2018-Jun-18 05:59N 43°24' E 004°57'0 0.0
2018-Jun-18 05:29N 43°24' E 004°57'0 0.0
2018-Jun-18 04:59N 43°24' E 004°57'0 0.0
2018-Jun-18 04:29N 43°24' E 004°57'0 0.0
2018-Jun-18 03:59N 43°24' E 004°57'0 0.0
2018-Jun-18 03:29N 43°24' E 004°57'0 0.0
2018-Jun-18 02:59N 43°24' E 004°57'0 0.0
2018-Jun-18 02:29N 43°24' E 004°57'0 0.0
2018-Jun-18 01:56N 43°24' E 004°57'0 0.0
2018-Jun-18 01:29N 43°24' E 004°57'0 0.0
2018-Jun-18 00:56N 43°24' E 004°57'0 0.0
2018-Jun-18 00:23N 43°24' E 004°57'0 0.0
2018-Jun-17 23:59N 43°24' E 004°57'0 0.0
2018-Jun-17 23:29N 43°24' E 004°57'0 0.0
2018-Jun-17 22:59N 43°24' E 004°57'0 0.0
2018-Jun-17 22:29N 43°24' E 004°57'0 0.0
2018-Jun-17 21:59N 43°24' E 004°57'0 0.0
2018-Jun-17 21:26N 43°24' E 004°57'0 0.0
2018-Jun-17 20:53N 43°24' E 004°57'0 0.0
2018-Jun-17 20:29N 43°24' E 004°57'0 0.0
2018-Jun-17 19:59N 43°24' E 004°57'0 0.0
2018-Jun-17 19:17N 43°24' E 004°57'0 0.1
2018-Jun-17 18:59N 43°24' E 004°57'0 0.0
2018-Jun-17 18:29N 43°24' E 004°57'0 0.0
2018-Jun-17 17:56N 43°24' E 004°57'0 0.0
2018-Jun-17 17:29N 43°24' E 004°57'0 0.0
2018-Jun-17 16:53N 43°24' E 004°57'0 0.0
2018-Jun-17 16:29N 43°24' E 004°57'0 0.0
2018-Jun-17 15:59N 43°24' E 004°57'0 0.0
2018-Jun-17 15:29N 43°24' E 004°57'0 0.1
2018-Jun-17 14:59N 43°24' E 004°57'0 0.0
2018-Jun-17 14:29N 43°24' E 004°57'0 0.1
2018-Jun-17 13:59N 43°24' E 004°57'0 0.0
2018-Jun-17 13:20N 43°24' E 004°57'0 0.0
2018-Jun-17 12:59N 43°24' E 004°57'0 0.0
2018-Jun-17 12:23N 43°24' E 004°57'0 0.0
2018-Jun-17 11:56N 43°24' E 004°57'0 0.0
2018-Jun-17 11:29N 43°24' E 004°57'0 0.0
2018-Jun-17 10:59N 43°24' E 004°57'0 0.0
2018-Jun-17 10:23N 43°24' E 004°57'0 0.0
2018-Jun-17 09:59N 43°24' E 004°57'0 0.0
2018-Jun-17 09:29N 43°24' E 004°57'0 0.0
2018-Jun-17 08:59N 43°24' E 004°57'0 0.0
2018-Jun-17 08:29N 43°24' E 004°57'0 0.0
2018-Jun-17 07:59N 43°24' E 004°57'0 0.0
2018-Jun-17 07:26N 43°24' E 004°57'0 0.1
2018-Jun-17 06:56N 43°24' E 004°57'0 0.0
2018-Jun-17 06:29N 43°24' E 004°57'0 0.0
2018-Jun-17 05:59N 43°24' E 004°57'0 0.0
2018-Jun-17 05:23N 43°24' E 004°57'0 0.0
2018-Jun-17 04:59N 43°24' E 004°57'0 0.0
2018-Jun-17 04:20N 43°24' E 004°57'0 0.0
2018-Jun-17 03:53N 43°24' E 004°57'0 0.0
2018-Jun-17 03:29N 43°24' E 004°57'0 0.0
2018-Jun-17 02:59N 43°24' E 004°57'0 0.0
2018-Jun-17 02:23N 43°24' E 004°57'0 0.0
2018-Jun-17 01:59N 43°24' E 004°57'0 0.0
2018-Jun-17 01:29N 43°24' E 004°57'0 0.0
2018-Jun-17 00:56N 43°24' E 004°57'0 0.0
2018-Jun-17 00:29N 43°24' E 004°57'0 0.0
2018-Jun-16 23:53N 43°24' E 004°57'0 0.0
2018-Jun-16 23:29N 43°24' E 004°57'0 0.0
2018-Jun-16 23:00N 43°24' E 004°57'1 2.9
2018-Jun-16 22:30N 43°23' E 004°58'4 9.1
2018-Jun-16 22:00N 43°18' E 004°60'711.8
2018-Jun-16 21:27N 43°12' E 005°02'27912.1
2018-Jun-15 22:28N 39°30' E 001°17'1112.7
2018-Jun-15 21:35N 39°21' E 001°08'112.9
2018-Jun-15 21:29N 39°20' E 001°07'1012.9
2018-Jun-15 20:41N 39°12' E 000°59'412.9
2018-Jun-15 20:22N 39°09' E 000°56'513.1
2018-Jun-15 20:00N 39°05' E 000°52'612.9
2018-Jun-15 19:30N 39°00' E 000°46'612.8
2018-Jun-15 19:00N 38°55' E 000°41'712.9
2018-Jun-15 18:29N 38°50' E 000°36'713.1
2018-Jun-15 17:57N 38°45' E 000°30'613.0
2018-Jun-15 17:30N 38°40' E 000°26'712.8
2018-Jun-15 16:59N 38°34' E 000°21'612.8
2018-Jun-15 16:30N 38°29' E 000°17'612.7
2018-Jun-15 15:59N 38°24' E 000°12'613.2
2018-Jun-15 15:30N 38°18' E 000°08'713.2
2018-Jun-15 15:00N 38°13' E 000°03'713.2
2018-Jun-15 14:29N 38°07' W 000°02'713.0
2018-Jun-15 13:57N 38°02' W 000°07'1612.9
2018-Jun-15 12:42N 37°48' W 000°18'413.4
2018-Jun-15 12:27N 37°45' W 000°21'713.1
2018-Jun-15 11:56N 37°39' W 000°25'512.6
2018-Jun-15 11:30N 37°35' W 000°29'812.8
2018-Jun-15 10:54N 37°29' W 000°36'512.7
2018-Jun-15 10:30N 37°26' W 000°40'712.3
2018-Jun-15 09:57N 37°22' W 000°47'811.9
2018-Jun-15 09:19N 37°16' W 000°54'22112.5
2018-Jun-14 15:36N 36°01' W 005°13'115.9
2018-Jun-14 15:30N 36°00' W 005°15'815.5
2018-Jun-14 15:00N 35°58' W 005°24'  

Dump ship's entire track history